createdAt,value
2019-01-25T00:01:58.421Z,28.62
2019-01-25T00:04:26.701Z,28.62
2019-01-25T00:06:54.983Z,29.35
2019-01-25T00:09:24.081Z,29.30
2019-01-25T00:11:52.722Z,29.77
2019-01-25T00:14:21.551Z,29.45
2019-01-25T00:16:49.757Z,29.07
2019-01-25T00:19:18.902Z,30.25
2019-01-25T00:21:47.203Z,29.50
2019-01-25T00:24:15.914Z,29.23
2019-01-25T00:26:44.166Z,29.12
2019-01-25T00:29:12.664Z,29.93
2019-01-25T00:31:41.393Z,29.12
2019-01-25T00:34:09.820Z,28.17
2019-01-25T00:36:38.019Z,29.82
2019-01-25T00:39:07.434Z,29.72
2019-01-25T00:41:35.621Z,29.40
2019-01-25T00:44:04.250Z,29.30
2019-01-25T00:46:32.629Z,28.23
2019-01-25T00:49:00.905Z,29.30
2019-01-25T00:51:29.294Z,29.20
2019-01-25T00:53:57.562Z,28.98
2019-01-25T00:56:25.919Z,29.67
2019-01-25T00:58:54.222Z,29.70
2019-01-25T01:01:22.638Z,29.50
2019-01-25T01:03:51.202Z,28.32
2019-01-25T01:06:19.973Z,27.90
2019-01-25T01:08:48.224Z,29.60
2019-01-25T01:11:16.942Z,28.35
2019-01-25T01:13:45.210Z,27.80
2019-01-25T01:16:13.853Z,28.10
2019-01-25T01:18:42.587Z,28.50
2019-01-25T01:21:10.830Z,27.30
2019-01-25T01:23:40.019Z,27.83
2019-01-25T01:26:08.904Z,27.50
2019-01-25T01:28:38.006Z,28.45
2019-01-25T01:31:06.212Z,27.40
2019-01-25T01:33:34.399Z,27.75
2019-01-25T01:36:02.682Z,28.40
2019-01-25T01:38:30.884Z,28.02
2019-01-25T01:40:59.691Z,27.73
2019-01-25T01:43:27.904Z,28.00
2019-01-25T01:45:56.780Z,27.60
2019-01-25T01:48:24.987Z,26.50
2019-01-25T01:50:55.362Z,27.53
2019-01-25T01:53:23.913Z,27.67
2019-01-25T01:55:52.470Z,28.43
2019-01-25T01:58:21.124Z,28.47
2019-01-25T02:00:49.796Z,28.40
2019-01-25T02:03:18.130Z,28.23
2019-01-25T02:05:46.297Z,28.77
2019-01-25T02:08:14.576Z,28.32
2019-01-25T02:10:42.644Z,28.70
2019-01-25T02:13:10.911Z,27.73
2019-01-25T02:15:39.708Z,27.45
2019-01-25T02:18:08.356Z,28.12
2019-01-25T02:20:36.888Z,27.42
2019-01-25T02:23:05.070Z,28.55
2019-01-25T02:25:33.666Z,28.80
2019-01-25T02:28:01.814Z,28.02
2019-01-25T02:30:29.953Z,27.55
2019-01-25T02:32:58.266Z,28.42
2019-01-25T02:35:27.155Z,28.80
2019-01-25T02:37:55.628Z,28.20
2019-01-25T02:40:25.826Z,27.50
2019-01-25T02:42:54.743Z,28.20
2019-01-25T02:45:23.700Z,28.30
2019-01-25T02:47:52.118Z,27.85
2019-01-25T02:50:20.507Z,28.55
2019-01-25T02:52:49.097Z,27.62
2019-01-25T02:55:18.267Z,29.50
2019-01-25T02:57:47.336Z,29.17
2019-01-25T03:00:20.178Z,28.77
2019-01-25T03:02:48.442Z,27.73
2019-01-25T03:05:18.505Z,27.55
2019-01-25T03:07:46.931Z,28.40
2019-01-25T03:10:18.370Z,27.20
2019-01-25T03:12:46.456Z,28.25
2019-01-25T03:15:16.599Z,27.80
2019-01-25T03:17:45.169Z,27.30
2019-01-25T03:20:13.448Z,28.45
2019-01-25T03:22:41.651Z,28.77
2019-01-25T03:25:12.305Z,28.80
2019-01-25T03:27:40.627Z,27.67
2019-01-25T03:30:09.982Z,28.38
2019-01-25T03:32:38.620Z,28.90
2019-01-25T03:35:07.441Z,28.83
2019-01-25T03:37:35.581Z,29.40
2019-01-25T03:40:04.182Z,27.65
2019-01-25T03:42:32.341Z,29.02
2019-01-25T03:45:01.190Z,28.50
2019-01-25T03:47:30.141Z,28.95
2019-01-25T03:49:58.261Z,29.12
2019-01-25T03:52:27.872Z,28.65
2019-01-25T03:54:56.215Z,28.73
2019-01-25T03:57:24.468Z,29.05
2019-01-25T03:59:52.668Z,29.40
2019-01-25T04:02:21.123Z,28.27
2019-01-25T04:04:49.300Z,28.80
2019-01-25T04:07:17.566Z,27.10
2019-01-25T04:09:45.849Z,28.20
2019-01-25T04:12:14.009Z,28.87
2019-01-25T04:14:42.148Z,28.35
2019-01-25T04:17:10.576Z,28.07
2019-01-25T04:19:39.048Z,27.82
2019-01-25T04:22:07.636Z,28.32
2019-01-25T04:24:36.640Z,29.10
2019-01-25T04:27:04.820Z,29.15
2019-01-25T04:29:33.083Z,28.12
2019-01-25T04:32:01.935Z,28.12
2019-01-25T04:34:31.080Z,29.20
2019-01-25T04:36:59.764Z,28.70
2019-01-25T04:39:27.824Z,28.25
2019-01-25T04:41:56.629Z,28.85
2019-01-25T04:44:24.792Z,29.10
2019-01-25T04:46:53.745Z,28.55
2019-01-25T04:49:22.584Z,29.20
2019-01-25T04:51:51.242Z,29.87
2019-01-25T04:54:19.754Z,29.17
2019-01-25T04:56:47.854Z,29.20
2019-01-25T04:59:16.465Z,29.50
2019-01-25T05:01:44.954Z,28.77
2019-01-25T05:04:14.089Z,29.83
2019-01-25T05:06:42.241Z,28.32
2019-01-25T05:09:10.845Z,27.75
2019-01-25T05:11:39.154Z,28.50
2019-01-25T05:14:08.305Z,28.35
2019-01-25T05:16:36.730Z,28.60
2019-01-25T05:19:05.324Z,28.30
2019-01-25T05:21:34.000Z,28.55
2019-01-25T05:24:08.420Z,28.95
2019-01-25T05:26:36.808Z,29.52
2019-01-25T05:29:05.598Z,29.00
2019-01-25T05:31:34.096Z,29.77
2019-01-25T05:34:02.622Z,28.70
2019-01-25T05:36:30.941Z,28.32
2019-01-25T05:38:59.161Z,28.92
2019-01-25T05:41:28.767Z,28.80
2019-01-25T05:43:57.409Z,28.50
2019-01-25T05:46:25.419Z,28.65
2019-01-25T05:48:53.536Z,29.23
2019-01-25T05:51:21.585Z,29.00
2019-01-25T05:53:52.753Z,29.00
2019-01-25T05:56:21.573Z,28.63
2019-01-25T05:58:50.305Z,28.30
2019-01-25T06:01:19.129Z,29.80
2019-01-25T06:03:47.363Z,28.95
2019-01-25T06:06:15.791Z,29.37
2019-01-25T06:08:44.943Z,28.83
2019-01-25T06:11:13.414Z,28.40
2019-01-25T06:13:42.036Z,28.90
2019-01-25T06:16:10.650Z,28.60
2019-01-25T06:18:39.097Z,28.92
2019-01-25T06:21:07.240Z,29.18
2019-01-25T06:23:36.028Z,29.37
2019-01-25T06:26:06.180Z,27.83
2019-01-25T06:28:34.575Z,28.17
2019-01-25T06:31:04.937Z,29.75
2019-01-25T06:33:32.939Z,28.73
2019-01-25T06:36:03.512Z,29.50
2019-01-25T06:38:31.611Z,28.65
2019-01-25T06:41:01.669Z,29.50
2019-01-25T06:43:29.920Z,29.27
2019-01-25T06:45:58.048Z,29.23
2019-01-25T06:48:26.595Z,28.87
2019-01-25T06:50:54.743Z,29.75
2019-01-25T06:53:23.095Z,29.07
2019-01-25T06:55:51.206Z,29.63
2019-01-25T06:58:44.043Z,28.95
2019-01-25T07:01:29.707Z,28.80
2019-01-25T07:03:58.328Z,29.30
2019-01-25T07:06:26.404Z,28.65
2019-01-25T07:08:54.842Z,29.02
2019-01-25T07:11:23.551Z,28.90
2019-01-25T07:13:52.526Z,29.55
2019-01-25T07:16:20.890Z,29.45
2019-01-25T07:18:49.044Z,28.50
2019-01-25T07:21:17.696Z,29.35
2019-01-25T07:23:45.873Z,28.45
2019-01-25T07:26:14.055Z,28.32
2019-01-25T07:28:42.921Z,28.67
2019-01-25T07:31:11.056Z,29.23
2019-01-25T07:33:39.205Z,28.40
2019-01-25T07:36:08.032Z,28.47
2019-01-25T07:38:36.203Z,28.40
2019-01-25T07:41:04.531Z,29.10
2019-01-25T07:43:33.456Z,29.07
2019-01-25T07:46:02.002Z,28.32
2019-01-25T07:48:30.957Z,28.50
2019-01-25T07:50:59.106Z,29.37
2019-01-25T07:53:28.047Z,28.80
2019-01-25T07:55:56.399Z,30.17
2019-01-25T07:58:24.846Z,28.05
2019-01-25T08:00:53.011Z,28.23
2019-01-25T08:03:21.566Z,30.00
2019-01-25T08:05:49.964Z,38.05
2019-01-25T08:08:18.392Z,33.30
2019-01-25T08:10:46.794Z,29.40
2019-01-25T08:13:15.345Z,29.10
2019-01-25T08:15:43.396Z,27.62
2019-01-25T08:18:11.852Z,35.10
2019-01-25T08:20:40.416Z,30.90
2019-01-25T08:23:08.604Z,28.90
2019-01-25T08:25:36.947Z,27.77
2019-01-25T08:28:05.432Z,28.10
2019-01-25T08:30:33.551Z,27.02
2019-01-25T08:33:01.611Z,27.17
2019-01-25T08:35:29.644Z,28.20
2019-01-25T08:37:57.828Z,27.07
2019-01-25T08:40:26.911Z,29.90
2019-01-25T08:42:55.089Z,27.97
2019-01-25T08:45:23.560Z,31.48
2019-01-25T08:47:51.955Z,27.27
2019-01-25T08:50:20.906Z,37.65
2019-01-25T08:52:49.342Z,31.80
2019-01-25T08:55:17.478Z,28.05
2019-01-25T08:57:46.556Z,26.50
2019-01-25T09:00:16.919Z,26.73
2019-01-25T09:02:45.783Z,27.27
2019-01-25T09:05:14.053Z,27.22
2019-01-25T09:07:43.805Z,26.27
2019-01-25T09:10:13.471Z,26.82
2019-01-25T09:12:42.138Z,26.48
2019-01-25T09:15:12.113Z,26.43
2019-01-25T09:17:40.185Z,26.03
2019-01-25T09:20:14.405Z,26.60
2019-01-25T09:22:39.768Z,27.15
2019-01-25T09:25:08.783Z,25.57
2019-01-25T09:27:37.342Z,27.25
2019-01-25T09:30:07.105Z,26.42
2019-01-25T09:32:35.500Z,25.40
2019-01-25T09:35:03.699Z,24.98
2019-01-25T09:37:32.196Z,25.40
2019-01-25T09:40:00.260Z,26.20
2019-01-25T09:42:31.189Z,24.85
2019-01-25T09:44:58.091Z,25.77
2019-01-25T09:47:26.707Z,24.18
2019-01-25T09:49:55.105Z,24.20
2019-01-25T09:52:23.160Z,23.52
2019-01-25T09:54:51.225Z,22.30
2019-01-25T09:57:19.816Z,21.67
2019-01-25T09:59:47.935Z,21.70
2019-01-25T10:02:16.452Z,20.88
2019-01-25T10:04:44.548Z,20.00
2019-01-25T10:07:12.655Z,19.35
2019-01-25T10:09:41.232Z,18.02
2019-01-25T10:12:09.552Z,18.37
2019-01-25T10:14:38.156Z,15.23
2019-01-25T10:17:06.331Z,15.83
2019-01-25T10:19:34.521Z,15.40
2019-01-25T10:22:03.433Z,15.60
2019-01-25T10:24:31.493Z,16.20
2019-01-25T10:27:00.335Z,16.40
2019-01-25T10:29:29.199Z,16.17
2019-01-25T10:31:57.392Z,16.42
2019-01-25T10:34:25.444Z,15.80
2019-01-25T10:36:53.357Z,15.70
2019-01-25T10:39:21.768Z,15.80
2019-01-25T10:41:49.939Z,15.90
2019-01-25T10:44:19.626Z,15.78
2019-01-25T10:46:47.825Z,14.60
2019-01-25T10:49:16.260Z,15.43
2019-01-25T10:51:44.740Z,14.90
2019-01-25T10:54:13.333Z,14.75
2019-01-25T10:56:42.013Z,15.85
2019-01-25T10:59:10.761Z,15.28
2019-01-25T11:01:38.818Z,16.20
2019-01-25T11:04:11.368Z,15.32
2019-01-25T11:06:36.734Z,15.43
2019-01-25T11:09:07.066Z,16.07
2019-01-25T11:11:36.801Z,15.70
2019-01-25T11:14:04.951Z,14.53
2019-01-25T11:16:33.099Z,14.30
2019-01-25T11:19:01.263Z,15.03
2019-01-25T11:21:29.700Z,14.17
2019-01-25T11:23:58.092Z,14.20
2019-01-25T11:26:26.218Z,14.10
2019-01-25T11:28:54.934Z,14.63
2019-01-25T11:31:23.229Z,14.68
2019-01-25T11:33:51.430Z,14.05
2019-01-25T11:36:19.720Z,14.28
2019-01-25T11:38:47.839Z,13.70
2019-01-25T11:41:16.424Z,14.10
2019-01-25T11:43:44.559Z,14.98
2019-01-25T11:46:12.980Z,14.60
2019-01-25T11:48:41.179Z,15.25
2019-01-25T11:51:09.737Z,14.68
2019-01-25T11:53:38.191Z,15.27
2019-01-25T11:56:08.209Z,14.70
2019-01-25T11:58:36.612Z,14.98
2019-01-25T12:01:05.548Z,15.00
2019-01-25T12:03:34.401Z,14.57
2019-01-25T12:06:02.759Z,14.23
2019-01-25T12:08:30.893Z,14.58
2019-01-25T12:10:59.621Z,15.20
2019-01-25T12:13:27.742Z,15.05
2019-01-25T12:15:56.253Z,15.00
2019-01-25T12:18:24.763Z,15.48
2019-01-25T12:20:53.510Z,16.35
2019-01-25T12:23:21.645Z,16.07
2019-01-25T12:25:49.791Z,16.12
2019-01-25T12:28:17.919Z,17.07
2019-01-25T12:30:47.711Z,16.37
2019-01-25T12:33:16.369Z,16.42
2019-01-25T12:35:44.745Z,16.20
2019-01-25T12:38:12.897Z,15.95
2019-01-25T12:40:42.267Z,17.15
2019-01-25T12:43:11.702Z,16.90
2019-01-25T12:45:41.400Z,15.70
2019-01-25T12:48:09.702Z,16.17
2019-01-25T12:50:42.444Z,15.43
2019-01-25T12:53:11.199Z,15.38
2019-01-25T12:55:39.529Z,16.20
2019-01-25T12:58:07.629Z,16.95
2019-01-25T13:00:35.759Z,16.35
2019-01-25T13:03:04.552Z,16.83
2019-01-25T13:05:33.508Z,17.62
2019-01-25T13:08:01.993Z,17.17
2019-01-25T13:10:30.060Z,17.60
2019-01-25T13:12:58.264Z,17.30
2019-01-25T13:15:26.447Z,16.77
2019-01-25T13:17:55.393Z,16.57
2019-01-25T13:20:24.584Z,16.50
2019-01-25T13:22:52.583Z,16.30
2019-01-25T13:25:20.916Z,16.87
2019-01-25T13:27:49.166Z,16.40
2019-01-25T13:30:19.518Z,17.00
2019-01-25T13:32:48.359Z,16.45
2019-01-25T13:35:16.613Z,16.40
2019-01-25T13:37:45.103Z,15.90
2019-01-25T13:40:14.174Z,16.60
2019-01-25T13:42:44.367Z,18.10
2019-01-25T13:45:13.239Z,16.97
2019-01-25T13:47:43.152Z,17.48
2019-01-25T13:50:12.860Z,17.45
2019-01-25T13:52:41.161Z,17.60
2019-01-25T13:55:10.964Z,18.00
2019-01-25T13:57:39.446Z,18.62
2019-01-25T14:00:09.555Z,18.50
2019-01-25T14:02:37.740Z,18.10
2019-01-25T14:05:06.336Z,18.67
2019-01-25T14:07:35.014Z,19.00
2019-01-25T14:10:03.191Z,18.87
2019-01-25T14:12:31.625Z,19.05
2019-01-25T14:14:59.801Z,18.65
2019-01-25T14:17:28.111Z,18.70
2019-01-25T14:19:56.292Z,19.60
2019-01-25T14:22:26.292Z,19.73
2019-01-25T14:24:56.183Z,21.77
2019-01-25T14:27:24.768Z,20.80
2019-01-25T14:29:52.939Z,21.00
2019-01-25T14:32:21.515Z,21.05
2019-01-25T14:34:49.908Z,21.10
2019-01-25T14:37:18.256Z,22.07
2019-01-25T14:39:46.301Z,22.73
2019-01-25T14:42:15.475Z,22.90
2019-01-25T14:44:43.995Z,23.95
2019-01-25T14:47:12.050Z,24.80
2019-01-25T14:49:40.569Z,24.23
2019-01-25T14:52:08.654Z,25.33
2019-01-25T14:54:37.040Z,24.45
2019-01-25T14:57:05.169Z,24.00
2019-01-25T14:59:33.277Z,23.47
2019-01-25T15:02:01.688Z,24.50
2019-01-25T15:04:29.848Z,24.10
2019-01-25T15:06:58.219Z,24.77
2019-01-25T15:09:26.336Z,24.10
2019-01-25T15:11:54.537Z,25.17
2019-01-25T15:14:24.538Z,23.45
2019-01-25T15:16:53.097Z,25.43
2019-01-25T15:19:21.597Z,23.80
2019-01-25T15:21:50.955Z,23.75
2019-01-25T15:24:19.440Z,23.60
2019-01-25T15:26:47.554Z,23.27
2019-01-25T15:29:16.123Z,24.43
2019-01-25T15:31:44.685Z,23.22
2019-01-25T15:34:13.309Z,23.80
2019-01-25T15:36:41.535Z,23.62
2019-01-25T15:39:10.574Z,23.73
2019-01-25T15:41:38.912Z,22.90
2019-01-25T15:44:10.090Z,23.50
2019-01-25T15:46:37.000Z,23.85
2019-01-25T15:49:05.196Z,24.12
2019-01-25T15:51:33.660Z,24.12
2019-01-25T15:54:02.815Z,24.72
2019-01-25T15:56:31.232Z,24.20
2019-01-25T15:59:01.522Z,24.10
2019-01-25T16:01:29.868Z,24.35
2019-01-25T16:03:58.906Z,24.72
2019-01-25T16:06:27.149Z,24.60
2019-01-25T16:08:55.706Z,24.12
2019-01-25T16:11:24.606Z,24.60
2019-01-25T16:13:52.689Z,24.25
2019-01-25T16:16:21.143Z,24.40
2019-01-25T16:18:49.168Z,24.70
2019-01-25T16:21:17.775Z,24.23
2019-01-25T16:23:46.128Z,24.20
2019-01-25T16:26:14.556Z,24.37
2019-01-25T16:28:43.055Z,24.27
2019-01-25T16:31:11.118Z,25.02
2019-01-25T16:33:40.079Z,24.72
2019-01-25T16:36:08.223Z,23.95
2019-01-25T16:38:36.337Z,24.80
2019-01-25T16:41:05.075Z,23.63
2019-01-25T16:43:33.407Z,25.52
2019-01-25T16:46:03.677Z,26.17
2019-01-25T16:48:31.960Z,25.35
2019-01-25T16:51:00.181Z,25.12
2019-01-25T16:53:28.677Z,26.33
2019-01-25T16:55:56.855Z,26.12
2019-01-25T16:58:25.319Z,26.17
2019-01-25T17:00:53.417Z,25.85
2019-01-25T17:03:23.049Z,25.43
2019-01-25T17:05:51.388Z,26.60
2019-01-25T17:08:20.122Z,26.87
2019-01-25T17:10:48.761Z,27.17
2019-01-25T17:13:16.875Z,26.30
2019-01-25T17:15:45.046Z,27.80
2019-01-25T17:18:13.229Z,28.23
2019-01-25T17:20:41.766Z,27.52
2019-01-25T17:23:10.243Z,27.60
2019-01-25T17:25:38.856Z,28.30
2019-01-25T17:28:08.008Z,27.67
2019-01-25T17:30:36.789Z,27.62
2019-01-25T17:33:05.234Z,27.62
2019-01-25T17:35:34.000Z,29.00
2019-01-25T17:38:02.344Z,28.38
2019-01-25T17:40:32.183Z,27.98
2019-01-25T17:43:00.791Z,29.98
2019-01-25T17:45:28.978Z,27.85
2019-01-25T17:47:57.621Z,30.00
2019-01-25T17:50:25.919Z,28.30
2019-01-25T17:52:54.966Z,29.20
2019-01-25T17:55:23.256Z,29.50
2019-01-25T17:57:51.630Z,29.92
2019-01-25T18:00:25.975Z,29.73
2019-01-25T18:02:56.320Z,29.85
2019-01-25T18:05:24.857Z,30.68
2019-01-25T18:07:53.248Z,31.17
2019-01-25T18:10:21.595Z,31.48
2019-01-25T18:12:49.761Z,31.70
2019-01-25T18:15:17.913Z,31.48
2019-01-25T18:17:46.410Z,33.10
2019-01-25T18:20:15.585Z,33.85
2019-01-25T18:22:43.835Z,32.50
2019-01-25T18:25:13.151Z,34.10
2019-01-25T18:27:43.543Z,33.63
2019-01-25T18:30:17.463Z,33.90
2019-01-25T18:32:45.855Z,34.33
2019-01-25T18:35:14.025Z,34.90
2019-01-25T18:37:42.638Z,35.68
2019-01-25T18:40:10.888Z,35.00
2019-01-25T18:42:39.237Z,35.05
2019-01-25T18:45:07.834Z,35.28
2019-01-25T18:47:37.217Z,36.23
2019-01-25T18:50:06.495Z,34.83
2019-01-25T18:52:34.563Z,33.42
2019-01-25T18:55:02.589Z,34.92
2019-01-25T18:57:32.269Z,34.50
2019-01-25T19:00:00.433Z,33.85
2019-01-25T19:02:28.927Z,33.45
2019-01-25T19:04:57.488Z,32.23
2019-01-25T19:07:27.000Z,31.75
2019-01-25T19:09:55.172Z,31.15
2019-01-25T19:12:23.336Z,29.52
2019-01-25T19:14:52.083Z,29.60
2019-01-25T19:17:20.205Z,30.52
2019-01-25T19:19:49.028Z,28.27
2019-01-25T19:22:17.864Z,27.25
2019-01-25T19:24:45.947Z,28.52
2019-01-25T19:27:14.877Z,26.50
2019-01-25T19:29:43.045Z,28.12
2019-01-25T19:32:11.569Z,27.48
2019-01-25T19:34:41.331Z,28.40
2019-01-25T19:37:09.491Z,27.20
2019-01-25T19:39:38.255Z,28.40
2019-01-25T19:42:06.831Z,28.10
2019-01-25T19:44:35.212Z,28.60
2019-01-25T19:47:03.813Z,27.65
2019-01-25T19:49:32.021Z,28.00
2019-01-25T19:52:00.715Z,27.62
2019-01-25T19:54:30.260Z,26.65
2019-01-25T19:56:58.419Z,27.40
2019-01-25T19:59:26.487Z,27.30
2019-01-25T20:01:54.732Z,26.93
2019-01-25T20:04:24.907Z,26.10
2019-01-25T20:06:53.017Z,27.30
2019-01-25T20:09:21.973Z,27.75
2019-01-25T20:11:50.966Z,27.45
2019-01-25T20:14:19.157Z,27.10
2019-01-25T20:16:47.339Z,27.73
2019-01-25T20:19:15.954Z,26.95
2019-01-25T20:21:44.480Z,29.05
2019-01-25T20:24:13.065Z,27.87
2019-01-25T20:26:41.208Z,27.73
2019-01-25T20:29:09.303Z,26.82
2019-01-25T20:31:37.898Z,27.32
2019-01-25T20:34:06.420Z,26.57
2019-01-25T20:36:34.595Z,27.70
2019-01-25T20:39:02.765Z,27.17
2019-01-25T20:41:31.880Z,27.77
2019-01-25T20:44:00.037Z,26.82
2019-01-25T20:46:28.487Z,27.60
2019-01-25T20:48:56.961Z,27.87
2019-01-25T20:51:25.324Z,28.53
2019-01-25T20:53:53.877Z,27.80
2019-01-25T20:56:22.443Z,28.37
2019-01-25T20:58:50.989Z,29.75
2019-01-25T21:01:19.634Z,29.67
2019-01-25T21:03:47.820Z,30.30
2019-01-25T21:06:15.950Z,30.10
2019-01-25T21:08:44.520Z,31.05
2019-01-25T21:11:12.621Z,31.00
2019-01-25T21:13:40.956Z,31.27
2019-01-25T21:16:09.174Z,32.05
2019-01-25T21:18:37.291Z,31.30
2019-01-25T21:21:05.610Z,32.25
2019-01-25T21:23:34.125Z,31.97
2019-01-25T21:26:02.270Z,33.10
2019-01-25T21:28:30.715Z,31.65
2019-01-25T21:30:59.464Z,33.00
2019-01-25T21:33:27.669Z,33.28
2019-01-25T21:35:56.092Z,31.90
2019-01-25T21:38:24.203Z,32.17
2019-01-25T21:40:52.396Z,33.95
2019-01-25T21:43:20.584Z,33.35
2019-01-25T21:45:49.376Z,35.30
2019-01-25T21:48:18.204Z,33.73
2019-01-25T21:50:47.216Z,32.85
2019-01-25T21:53:15.323Z,33.95
2019-01-25T21:55:43.493Z,33.47
2019-01-25T21:58:12.703Z,33.15
2019-01-25T22:00:41.147Z,33.50
2019-01-25T22:03:09.979Z,32.27
2019-01-25T22:05:39.124Z,31.90
2019-01-25T22:08:07.704Z,33.60
2019-01-25T22:10:37.609Z,32.17
2019-01-25T22:13:05.933Z,31.62
2019-01-25T22:15:34.679Z,30.40
2019-01-25T22:18:03.014Z,31.23
2019-01-25T22:20:31.336Z,31.60
2019-01-25T22:22:59.978Z,29.43
2019-01-25T22:25:28.248Z,30.10
2019-01-25T22:27:57.500Z,28.83
2019-01-25T22:30:26.328Z,29.48
2019-01-25T22:32:54.567Z,29.18
2019-01-25T22:35:23.113Z,29.60
2019-01-25T22:37:53.183Z,28.98
2019-01-25T22:40:24.351Z,29.23
2019-01-25T22:42:52.855Z,29.20
2019-01-25T22:45:24.188Z,28.15
2019-01-25T22:47:52.281Z,28.55
2019-01-25T22:50:21.964Z,27.90
2019-01-25T22:52:51.788Z,27.73
2019-01-25T22:55:20.379Z,28.38
2019-01-25T22:57:49.275Z,29.45
2019-01-25T23:00:48.409Z,28.23
2019-01-25T23:03:17.629Z,27.30
2019-01-25T23:06:02.170Z,29.25
2019-01-25T23:08:31.126Z,27.77
2019-01-25T23:10:59.845Z,28.23
2019-01-25T23:13:28.359Z,28.73
2019-01-25T23:15:57.288Z,27.83
2019-01-25T23:18:25.379Z,28.27
2019-01-25T23:20:55.673Z,27.52
2019-01-25T23:23:23.989Z,27.93
2019-01-25T23:25:52.480Z,27.97
2019-01-25T23:28:20.961Z,28.47
2019-01-25T23:30:49.138Z,28.40
2019-01-25T23:33:17.800Z,28.35
2019-01-25T23:35:46.410Z,28.70
2019-01-25T23:38:14.832Z,27.93
2019-01-25T23:40:42.865Z,27.30
2019-01-25T23:43:10.975Z,26.62
2019-01-25T23:45:39.520Z,27.27
2019-01-25T23:48:07.629Z,27.15
2019-01-25T23:50:36.040Z,27.90
2019-01-25T23:53:04.176Z,26.90
2019-01-25T23:55:32.235Z,27.58
2019-01-25T23:58:00.900Z,26.97
